logo

United by the hobby
of model aircraft flying

Promoting safe
radio model flying

Sharing the experience
of RC flying

Dedicated to the sport of model aviation

Meeting
Venue

Third Monday Each Month
Crown Point Civic Center
101 S East Street
Crown Point, IN 46307

Read More

email:
[javascript protected email address]

View our events calendar

2021

Weather Conditions

Elev 730 ft    41.19°N  87.16°W

35.1 °F
070°
15 m/h
Wind Variable Wind from ENE

Current Conditions

Pressure 29.93 in
Visibility 10 miles
Clouds Mostly
Dew Point 25.0 °F
Humidity 66 %
Rainfall T0.7 in
 
METAR KVPZ 251904Z AUTO 07013KT 10SM BKN021 02/M04 A2993 RMK AO2 T00171039

Forecast

INFORMATION PROVIDED BY THE INDIANA STATE FORECAST - NATIONAL WEATHER SERVICE
Sunrise & Sunset
January 25, 2021
4:3 AM

::58 PM
High 32 | Low 18°F
January 26, 2021
4:3 AM

::58 PM
High | Low °F
 

our gallery

View All